Time;durP1;ratioP1;P1;durP2;ratioP2;P2;SDS_P1;SDS_P2;PMS_P1;PMS_P2;Temp;Humidity;BMP_temperature;BMP_pressure;BME280_temperature;BME280_humidity;BME280_pressure;Samples;Min_cycle;Max_cycle;Signal;HPM_P1;HPM_P2
2020/12/12 00:00:23;;;;;;;11.13;5.20;;;3.80;88.30;;;;;;5098868;28;20060;-80
2020/12/12 00:02:54;;;;;;;10.48;5.32;;;3.80;88.60;;;;;;5114794;27;20056;-80
2020/12/12 00:05:21;;;;;;;11.80;5.35;;;3.80;88.50;;;;;;5070696;28;20071;-80
2020/12/12 00:07:49;;;;;;;8.95;4.72;;;3.80;88.70;;;;;;5082711;28;20271;-80
2020/12/12 00:10:23;;;;;;;9.82;4.78;;;3.80;88.80;;;;;;5083695;28;20055;-80
2020/12/12 00:12:54;;;;;;;7.80;4.25;;;3.70;89.20;;;;;;5082988;28;20059;-79
2020/12/12 00:15:22;;;;;;;9.52;4.22;;;3.80;88.90;;;;;;5061597;28;20094;-80
2020/12/12 00:17:52;;;;;;;9.73;4.78;;;3.70;89.40;;;;;;5082176;28;20366;-79
2020/12/12 00:20:20;;;;;;;11.17;4.87;;;3.70;89.60;;;;;;5081263;28;20056;-80
2020/12/12 00:22:48;;;;;;;8.75;4.18;;;3.70;89.20;;;;;;5084004;28;20048;-80
2020/12/12 00:25:25;;;;;;;11.52;5.38;;;3.70;89.20;;;;;;5112869;27;20067;-80
2020/12/12 00:27:53;;;;;;;11.13;5.82;;;3.70;89.20;;;;;;5077922;28;20332;-80
2020/12/12 00:30:22;;;;;;;10.82;5.90;;;3.80;89.50;;;;;;5082744;28;20055;-79
2020/12/12 00:32:50;;;;;;;12.93;5.88;;;3.80;89.90;;;;;;5094501;28;20135;-79
2020/12/12 00:35:18;;;;;;;10.88;5.63;;;3.90;89.40;;;;;;5081778;28;20044;-78
2020/12/12 00:37:46;;;;;;;10.57;5.07;;;3.90;89.30;;;;;;5075259;28;20037;-80
2020/12/12 00:40:14;;;;;;;13.85;6.53;;;3.80;89.20;;;;;;5073019;28;20283;-80
2020/12/12 00:42:42;;;;;;;9.23;4.80;;;3.80;89.20;;;;;;5098322;28;20049;-79
2020/12/12 00:45:11;;;;;;;9.50;4.10;;;3.90;89.50;;;;;;5080467;28;20067;-80
2020/12/12 00:47:39;;;;;;;9.35;4.93;;;3.90;89.30;;;;;;5078922;28;20266;-80
2020/12/12 00:50:07;;;;;;;10.80;4.88;;;3.80;89.20;;;;;;5065465;28;20052;-78
2020/12/12 00:52:36;;;;;;;10.50;4.60;;;3.90;88.90;;;;;;5076070;28;20201;-80
2020/12/12 00:55:06;;;;;;;10.88;5.63;;;3.80;89.30;;;;;;5063777;28;20128;-79
2020/12/12 00:57:34;;;;;;;10.88;4.50;;;3.90;89.10;;;;;;5098299;28;20053;-80
2020/12/12 01:00:06;;;;;;;9.98;4.63;;;3.80;89.10;;;;;;5078094;28;20132;-80
2020/12/12 01:02:33;;;;;;;10.98;5.40;;;3.80;89.00;;;;;;5084748;28;20094;-79
2020/12/12 01:05:01;;;;;;;9.13;4.78;;;3.90;88.60;;;;;;5078789;28;20048;-80
2020/12/12 01:07:29;;;;;;;9.90;5.15;;;3.90;88.90;;;;;;5062381;28;20075;-78
2020/12/12 01:09:56;;;;;;;8.85;4.53;;;3.90;88.50;;;;;;5081088;28;20056;-80
2020/12/12 01:12:22;;;;;;;9.18;4.95;;;3.80;88.90;;;;;;5067916;28;20048;-79
2020/12/12 01:14:50;;;;;;;10.00;4.85;;;3.80;88.80;;;;;;5085398;28;20202;-81
2020/12/12 01:17:17;;;;;;;10.88;5.63;;;3.90;89.50;;;;;;5081808;28;20063;-80
2020/12/12 01:19:44;;;;;;;7.07;4.00;;;4.00;88.90;;;;;;5082106;28;20056;-80
2020/12/12 01:22:12;;;;;;;9.63;3.83;;;4.00;88.70;;;;;;5074369;28;20039;-80
2020/12/12 01:24:39;;;;;;;9.75;4.13;;;3.90;88.70;;;;;;5056103;28;20063;-80
2020/12/12 01:27:06;;;;;;;9.68;3.92;;;3.90;89.20;;;;;;5079176;28;20044;-79
2020/12/12 01:29:32;;;;;;;11.10;4.30;;;4.00;89.20;;;;;;5079340;28;20252;-80
2020/12/12 01:32:00;;;;;;;8.68;4.15;;;3.90;89.20;;;;;;5107781;28;20090;-79
2020/12/12 01:34:27;;;;;;;9.13;4.55;;;4.00;89.00;;;;;;5079875;28;20094;-78
2020/12/12 01:36:54;;;;;;;10.57;4.78;;;4.00;88.90;;;;;;5079345;28;20056;-78
2020/12/12 01:39:21;;;;;;;9.38;4.82;;;4.10;88.30;;;;;;5084612;28;20078;-79
2020/12/12 01:41:48;;;;;;;11.25;5.03;;;4.10;88.80;;;;;;5060462;28;20049;-79
2020/12/12 01:44:17;;;;;;;9.82;4.38;;;4.10;88.30;;;;;;5086260;28;20093;-80
2020/12/12 01:46:47;;;;;;;11.68;4.63;;;4.00;88.70;;;;;;5081286;28;20051;-78
2020/12/12 01:49:15;;;;;;;9.23;3.90;;;4.10;88.80;;;;;;5094883;28;20097;-79
2020/12/12 01:51:44;;;;;;;7.53;4.25;;;4.10;88.60;;;;;;5084854;28;20151;-79
2020/12/12 01:54:11;;;;;;;10.52;4.82;;;4.10;88.50;;;;;;5081726;28;20059;-78
2020/12/12 01:56:39;;;;;;;9.85;4.22;;;4.00;89.00;;;;;;5080961;28;20044;-78
2020/12/12 01:59:06;;;;;;;10.57;4.93;;;4.20;89.10;;;;;;5082306;28;20385;-79
2020/12/12 02:01:39;;;;;;;8.40;4.30;;;4.20;89.10;;;;;;5113252;27;20056;-77
2020/12/12 02:04:07;;;;;;;9.80;4.47;;;4.20;88.70;;;;;;5041054;28;20053;-79
2020/12/12 02:06:35;;;;;;;6.28;3.33;;;4.20;89.20;;;;;;5061334;28;20137;-80
2020/12/12 02:09:03;;;;;;;9.75;5.25;;;4.10;89.50;;;;;;5064470;28;20283;-78
2020/12/12 02:11:30;;;;;;;8.73;4.72;;;4.00;89.90;;;;;;5045769;28;20037;-79
2020/12/12 02:13:57;;;;;;;9.60;3.88;;;4.10;89.90;;;;;;5025894;28;20292;-80
2020/12/12 02:16:25;;;;;;;8.45;4.35;;;4.20;89.50;;;;;;5077436;28;20193;-79
2020/12/12 02:18:52;;;;;;;10.20;4.15;;;4.00;90.00;;;;;;5061827;28;20091;-80
2020/12/12 02:21:19;;;;;;;9.38;4.40;;;4.00;90.00;;;;;;5060674;28;20045;-78
2020/12/12 02:23:47;;;;;;;11.98;5.55;;;4.10;90.10;;;;;;5075823;28;20049;-79
2020/12/12 02:26:14;;;;;;;10.75;4.45;;;4.10;90.40;;;;;;5042971;28;20060;-81
2020/12/12 02:28:46;;;;;;;10.43;4.05;;;4.10;90.00;;;;;;5062318;28;20072;-81
2020/12/12 02:31:13;;;;;;;10.20;5.05;;;4.10;89.70;;;;;;5040289;28;20053;-84
2020/12/12 02:33:40;;;;;;;10.38;4.75;;;4.00;90.10;;;;;;5060841;28;20084;-82
2020/12/12 02:36:07;;;;;;;7.53;3.58;;;4.00;90.20;;;;;;5062803;28;20114;-80
2020/12/12 02:38:35;;;;;;;8.50;4.13;;;3.90;90.50;;;;;;5061420;28;20071;-79
2020/12/12 02:41:08;;;;;;;8.98;4.47;;;4.00;90.40;;;;;;5057540;28;20048;-79
2020/12/12 02:43:36;;;;;;;8.82;4.43;;;4.00;90.20;;;;;;5060232;28;20092;-79
2020/12/12 02:46:03;;;;;;;9.90;4.38;;;4.10;90.00;;;;;;5043197;28;20087;-80
2020/12/12 02:48:30;;;;;;;8.32;3.88;;;4.10;89.70;;;;;;5060118;28;20060;-79
2020/12/12 02:50:57;;;;;;;10.25;3.45;;;4.00;89.80;;;;;;5059395;28;20083;-79
2020/12/12 02:53:23;;;;;;;7.05;3.60;;;4.10;89.60;;;;;;5060783;28;20052;-80
2020/12/12 02:55:50;;;;;;;6.57;3.50;;;4.10;89.80;;;;;;5066034;28;20086;-78
2020/12/12 02:58:18;;;;;;;6.22;3.22;;;4.10;89.40;;;;;;5061052;28;20095;-78
2020/12/12 03:00:45;;;;;;;11.35;4.40;;;4.10;89.50;;;;;;5045881;28;20060;-79
2020/12/12 03:03:12;;;;;;;8.43;4.18;;;4.10;89.70;;;;;;5066526;28;20068;-78
2020/12/12 03:05:39;;;;;;;7.40;4.00;;;4.10;89.70;;;;;;5067996;28;20060;-80
2020/12/12 03:08:05;;;;;;;7.82;4.03;;;4.00;89.80;;;;;;5080755;28;20374;-79
2020/12/12 03:10:33;;;;;;;10.00;4.60;;;4.10;89.90;;;;;;5081211;28;20060;-80
2020/12/12 03:13:00;;;;;;;7.55;4.60;;;4.10;90.10;;;;;;5083057;28;20048;-79
2020/12/12 03:15:28;;;;;;;9.00;3.97;;;4.10;90.10;;;;;;5081752;28;20319;-79
2020/12/12 03:17:55;;;;;;;7.15;3.50;;;4.00;89.40;;;;;;5081899;28;20064;-81
2020/12/12 03:20:23;;;;;;;7.90;4.20;;;4.00;89.60;;;;;;5063618;28;20493;-80
2020/12/12 03:22:50;;;;;;;9.43;3.78;;;4.00;89.70;;;;;;5081265;28;20094;-79
2020/12/12 03:25:17;;;;;;;6.72;3.35;;;4.00;90.00;;;;;;5084345;28;20053;-79
2020/12/12 03:27:47;;;;;;;7.35;3.30;;;4.00;89.90;;;;;;5085838;28;20074;-80
2020/12/12 03:30:14;;;;;;;8.38;4.00;;;4.10;90.00;;;;;;5116936;27;20101;-80
2020/12/12 03:32:41;;;;;;;6.55;3.35;;;4.00;90.00;;;;;;5056299;28;20270;-79
2020/12/12 03:35:08;;;;;;;8.82;3.45;;;4.20;89.90;;;;;;5066398;28;21842;-79
2020/12/12 03:37:35;;;;;;;6.20;3.70;;;4.10;90.10;;;;;;5066761;28;20048;-80
2020/12/12 03:40:04;;;;;;;7.97;3.42;;;4.10;89.80;;;;;;5092680;28;20056;-79
2020/12/12 03:42:33;;;;;;;6.57;3.20;;;4.20;89.40;;;;;;5084034;28;20052;-78
2020/12/12 03:45:03;;;;;;;8.05;3.85;;;4.20;89.60;;;;;;5084031;28;20059;-78
2020/12/12 03:47:30;;;;;;;7.63;3.72;;;4.10;89.90;;;;;;5086212;28;20052;-79
2020/12/12 03:49:58;;;;;;;8.98;3.95;;;3.90;90.60;;;;;;5068330;28;20049;-79
2020/12/12 03:52:25;;;;;;;6.90;3.45;;;3.90;90.50;;;;;;5084236;28;20039;-80
2020/12/12 03:54:51;;;;;;;7.32;3.38;;;4.00;90.90;;;;;;5084681;28;20087;-79
2020/12/12 03:57:20;;;;;;;7.65;3.28;;;3.90;90.70;;;;;;5083658;28;20285;-79
2020/12/12 03:59:50;;;;;;;6.75;3.95;;;4.10;90.30;;;;;;5071292;28;20058;-81
2020/12/12 04:02:16;;;;;;;6.18;2.92;;;4.00;90.40;;;;;;5078826;28;20041;-80
2020/12/12 04:04:43;;;;;;;7.63;3.92;;;3.90;91.10;;;;;;5080468;28;20251;-81
2020/12/12 04:07:11;;;;;;;6.85;3.08;;;4.00;90.70;;;;;;5094855;28;20059;-81
2020/12/12 04:09:38;;;;;;;7.88;3.80;;;4.00;90.00;;;;;;5084055;28;20067;-79
2020/12/12 04:12:05;;;;;;;7.35;3.67;;;4.10;90.10;;;;;;5063113;28;20056;-80
2020/12/12 04:14:33;;;;;;;7.47;3.20;;;4.10;90.20;;;;;;5082152;28;20209;-79
2020/12/12 04:17:00;;;;;;;6.32;2.75;;;4.00;90.50;;;;;;5082906;28;20115;-79
2020/12/12 04:19:29;;;;;;;10.27;3.15;;;4.10;90.10;;;;;;5084329;28;20080;-79
2020/12/12 04:21:56;;;;;;;8.05;3.35;;;4.20;89.90;;;;;;5082840;28;20048;-78
2020/12/12 04:24:25;;;;;;;7.15;3.35;;;4.00;90.10;;;;;;5082566;28;20396;-82
2020/12/12 04:26:54;;;;;;;7.25;3.70;;;4.00;90.80;;;;;;5075408;28;20059;-81
2020/12/12 04:29:21;;;;;;;8.98;3.70;;;4.10;90.60;;;;;;5067030;28;20063;-80
2020/12/12 04:31:48;;;;;;;6.55;3.40;;;4.10;90.60;;;;;;5082622;28;20056;-82
2020/12/12 04:34:15;;;;;;;6.47;3.30;;;4.10;90.70;;;;;;5078751;28;20049;-82
2020/12/12 04:36:42;;;;;;;6.90;2.90;;;4.00;90.40;;;;;;5074360;28;20059;-81
2020/12/12 04:39:09;;;;;;;7.00;3.15;;;4.00;90.80;;;;;;5056774;28;20045;-82
2020/12/12 04:41:42;;;;;;;10.40;3.72;;;4.20;90.10;;;;;;5075391;28;20052;-81
2020/12/12 04:44:09;;;;;;;8.85;3.40;;;4.10;91.00;;;;;;5080552;28;20060;-78
2020/12/12 04:46:38;;;;;;;10.27;3.05;;;4.10;90.90;;;;;;5080889;28;20049;-80
2020/12/12 04:49:07;;;;;;;5.18;2.83;;;4.10;89.30;;;;;;5081717;28;20057;-79
2020/12/12 04:51:35;;;;;;;5.65;2.60;;;4.10;90.00;;;;;;5067264;28;20055;-81
2020/12/12 04:54:03;;;;;;;5.78;2.97;;;4.00;90.10;;;;;;5079784;28;20060;-80
2020/12/12 04:56:35;;;;;;;5.30;2.08;;;4.00;90.20;;;;;;5096780;28;20045;-78
2020/12/12 04:59:06;;;;;;;7.32;3.55;;;4.00;90.00;;;;;;5077740;28;20061;-79
2020/12/12 05:01:34;;;;;;;9.07;3.13;;;4.00;90.70;;;;;;5081137;28;20086;-79
2020/12/12 05:04:04;;;;;;;6.28;2.60;;;4.00;90.50;;;;;;5062265;28;20371;-80
2020/12/12 05:06:32;;;;;;;5.55;2.65;;;4.10;90.40;;;;;;5055348;28;20049;-78
2020/12/12 05:08:59;;;;;;;5.15;2.78;;;4.20;89.70;;;;;;5072172;28;20033;-80
2020/12/12 05:11:26;;;;;;;7.65;3.55;;;4.10;89.50;;;;;;5059577;28;20057;-79
2020/12/12 05:13:54;;;;;;;4.75;2.58;;;4.10;89.90;;;;;;5056276;28;20323;-80
2020/12/12 05:16:22;;;;;;;5.45;2.38;;;4.10;89.60;;;;;;5017320;28;20049;-78
2020/12/12 05:18:50;;;;;;;5.10;2.80;;;4.00;89.60;;;;;;5049736;28;20142;-80
2020/12/12 05:21:19;;;;;;;5.70;2.33;;;4.10;90.10;;;;;;5024672;28;20056;-79
2020/12/12 05:23:46;;;;;;;5.10;2.60;;;4.10;89.80;;;;;;5059969;28;20060;-80
2020/12/12 05:26:14;;;;;;;4.88;2.38;;;4.00;90.00;;;;;;5052484;28;20049;-80
2020/12/12 05:28:41;;;;;;;5.30;2.65;;;4.00;89.60;;;;;;5054527;28;20044;-79
2020/12/12 05:31:10;;;;;;;5.80;2.00;;;4.00;90.50;;;;;;5044927;28;20049;-81
2020/12/12 05:33:39;;;;;;;5.63;2.20;;;4.00;90.80;;;;;;5034799;28;20122;-78
2020/12/12 05:36:06;;;;;;;5.13;2.10;;;4.10;89.90;;;;;;5059549;28;20045;-79
2020/12/12 05:38:33;;;;;;;4.75;2.45;;;4.20;89.30;;;;;;5056628;28;20061;-80
2020/12/12 05:41:01;;;;;;;6.00;2.00;;;4.10;89.90;;;;;;5034498;28;20045;-79
2020/12/12 05:43:35;;;;;;;5.20;2.42;;;4.00;90.20;;;;;;5050386;28;20041;-82
2020/12/12 05:46:09;;;;;;;4.93;2.20;;;3.90;90.20;;;;;;5038317;28;20052;-81
2020/12/12 05:48:40;;;;;;;4.88;2.05;;;3.90;89.80;;;;;;5058507;28;20049;-80
2020/12/12 05:51:09;;;;;;;4.97;1.85;;;3.90;89.50;;;;;;5061906;28;20390;-83
2020/12/12 05:53:36;;;;;;;5.30;2.22;;;3.90;89.70;;;;;;5046830;28;20049;-80
2020/12/12 05:56:05;;;;;;;4.68;1.80;;;4.00;89.50;;;;;;5055551;28;20056;-80
2020/12/12 05:58:33;;;;;;;4.40;1.98;;;4.10;89.20;;;;;;5026021;28;20056;-80
2020/12/12 06:01:07;;;;;;;5.20;2.33;;;4.10;89.30;;;;;;5043375;28;20063;-80
2020/12/12 06:03:50;;;;;;;5.65;1.95;;;4.10;88.80;;;;;;5025572;28;20064;-79
2020/12/12 06:06:22;;;;;;;5.00;2.40;;;4.10;88.80;;;;;;5021972;28;20052;-79
2020/12/12 06:09:06;;;;;;;3.67;1.80;;;4.10;88.70;;;;;;5059949;28;20131;-80
2020/12/12 06:11:34;;;;;;;5.28;2.08;;;4.20;88.00;;;;;;5034837;28;20243;-80
2020/12/12 06:14:04;;;;;;;5.88;2.47;;;4.20;88.20;;;;;;5057761;28;20163;-79
2020/12/12 06:16:34;;;;;;;3.03;1.35;;;4.20;88.10;;;;;;5040670;28;20048;-79
2020/12/12 06:19:12;;;;;;;4.40;1.73;;;4.10;88.20;;;;;;5023962;28;20079;-80
2020/12/12 06:21:40;;;;;;;6.50;2.42;;;4.20;87.80;;;;;;5068718;28;20059;-80
2020/12/12 06:24:10;;;;;;;5.35;2.38;;;4.10;88.50;;;;;;5026837;28;20053;-80
2020/12/12 06:26:51;;;;;;;5.85;2.42;;;4.10;88.30;;;;;;5039242;28;20053;-80
2020/12/12 06:29:20;;;;;;;4.45;1.85;;;4.00;88.50;;;;;;5023559;28;20060;-79
2020/12/12 06:31:47;;;;;;;6.75;2.63;;;4.00;88.90;;;;;;5044074;28;20045;-80
2020/12/12 06:34:17;;;;;;;5.13;1.75;;;4.20;88.80;;;;;;5045898;28;20048;-80
2020/12/12 06:36:48;;;;;;;5.30;2.42;;;4.20;88.50;;;;;;5042111;28;20068;-80
2020/12/12 06:39:16;;;;;;;;;;;4.20;88.50;;;;;;5064876;28;20317;-80
2020/12/12 06:41:44;;;;;;;5.85;2.47;;;4.20;88.80;;;;;;5056968;28;19979;-80
2020/12/12 06:44:11;;;;;;;4.38;2.03;;;4.10;88.70;;;;;;5057776;28;20316;-79
2020/12/12 06:46:52;;;;;;;5.55;2.50;;;4.20;88.70;;;;;;5055795;28;20303;-79
2020/12/12 06:49:21;;;;;;;6.63;2.35;;;4.20;88.10;;;;;;5040976;28;20153;-80
2020/12/12 06:51:48;;;;;;;4.05;1.65;;;4.20;88.60;;;;;;5051680;28;20048;-79
2020/12/12 06:54:15;;;;;;;5.88;2.47;;;4.20;88.40;;;;;;5046391;28;20057;-80
2020/12/12 06:56:42;;;;;;;7.45;3.05;;;4.10;88.20;;;;;;5043272;28;20049;-80
2020/12/12 06:59:25;;;;;;;6.57;2.42;;;4.10;88.60;;;;;;5061076;28;20051;-78
2020/12/12 07:01:53;;;;;;;6.07;3.20;;;4.20;88.10;;;;;;5065233;28;20070;-80
2020/12/12 07:04:26;;;;;;;7.78;2.50;;;4.20;88.30;;;;;;5084693;28;20390;-79
2020/12/12 07:07:14;;;;;;;6.97;2.53;;;4.20;88.40;;;;;;5085625;28;20053;-79
2020/12/12 07:09:41;;;;;;;5.82;2.03;;;4.20;88.20;;;;;;5082141;28;20246;-81
2020/12/12 07:12:15;;;;;;;5.35;2.55;;;4.10;88.10;;;;;;5060755;28;20098;-80
2020/12/12 07:14:42;;;;;;;6.70;2.15;;;4.20;88.20;;;;;;5065766;28;20067;-80
2020/12/12 07:17:09;;;;;;;5.47;2.15;;;4.20;88.30;;;;;;5044941;28;20101;-80
2020/12/12 07:19:38;;;;;;;7.47;2.75;;;4.20;87.90;;;;;;5045960;28;20098;-80
2020/12/12 07:22:08;;;;;;;6.95;2.40;;;4.30;87.60;;;;;;5078781;28;20075;-78
2020/12/12 07:24:36;;;;;;;7.13;2.60;;;4.20;88.00;;;;;;5080768;28;20056;-80
2020/12/12 07:27:05;;;;;;;6.38;2.78;;;4.20;88.10;;;;;;5107236;28;20048;-80
2020/12/12 07:29:33;;;;;;;6.25;2.88;;;4.20;87.90;;;;;;5079387;28;20057;-80
2020/12/12 07:32:01;;;;;;;6.10;2.58;;;4.10;88.10;;;;;;5083079;28;20355;-79
2020/12/12 07:34:29;;;;;;;6.07;2.47;;;4.10;87.80;;;;;;5083868;28;20328;-80
2020/12/12 07:37:00;;;;;;;8.15;2.97;;;4.10;87.90;;;;;;5068937;28;20093;-80
2020/12/12 07:39:30;;;;;;;6.85;2.60;;;4.20;88.10;;;;;;5066405;28;20060;-80
2020/12/12 07:41:58;;;;;;;6.72;3.30;;;4.20;87.70;;;;;;5062731;28;20338;-80
2020/12/12 07:44:31;;;;;;;6.82;3.17;;;4.20;87.70;;;;;;5049807;28;20065;-80
2020/12/12 07:47:02;;;;;;;7.55;3.33;;;4.10;87.80;;;;;;5066728;28;20047;-80
2020/12/12 07:49:30;;;;;;;6.55;2.40;;;4.10;88.40;;;;;;5080535;28;20127;-81
2020/12/12 07:52:07;;;;;;;7.03;3.10;;;4.20;88.20;;;;;;5066166;28;20075;-80
2020/12/12 07:54:42;;;;;;;5.20;2.50;;;4.20;88.00;;;;;;5084963;28;20281;-80
2020/12/12 07:57:11;;;;;;;6.25;2.88;;;4.20;87.30;;;;;;5063964;28;20220;-79
2020/12/12 07:59:39;;;;;;;5.72;2.63;;;4.10;87.80;;;;;;5057029;28;20049;-79
2020/12/12 08:02:10;;;;;;;7.32;3.58;;;4.10;88.10;;;;;;5080939;28;20070;-80
2020/12/12 08:04:37;;;;;;;5.22;2.50;;;4.10;87.60;;;;;;5068709;28;20113;-80
2020/12/12 08:07:12;;;;;;;6.50;2.90;;;4.20;88.00;;;;;;5067469;28;20098;-79
2020/12/12 08:09:47;;;;;;;5.55;2.40;;;4.20;87.70;;;;;;5057957;28;20067;-79
2020/12/12 08:12:28;;;;;;;7.72;3.90;;;4.40;87.30;;;;;;5056473;28;20401;-80
2020/12/12 08:14:57;;;;;;;6.97;2.70;;;4.30;86.70;;;;;;5066587;28;20258;-79
2020/12/12 08:17:28;;;;;;;10.65;3.10;;;4.30;87.20;;;;;;5063612;28;20056;-78
2020/12/12 08:19:58;;;;;;;8.25;3.60;;;4.20;87.50;;;;;;5063847;28;20052;-79
2020/12/12 08:22:27;;;;;;;6.85;2.70;;;4.20;87.40;;;;;;5084882;28;20033;-79
2020/12/12 08:24:54;;;;;;;5.25;2.97;;;4.20;87.50;;;;;;5062314;28;20422;-78
2020/12/12 08:27:28;;;;;;;7.82;3.65;;;4.20;87.80;;;;;;5050741;28;20274;-78
2020/12/12 08:29:58;;;;;;;8.00;3.38;;;4.20;87.80;;;;;;5083959;28;20097;-83
2020/12/12 08:32:29;;;;;;;7.13;3.28;;;4.30;88.30;;;;;;5064770;28;20047;-79
2020/12/12 08:35:13;;;;;;;7.72;4.53;;;4.30;87.90;;;;;;5064244;28;20095;-78
2020/12/12 08:37:55;;;;;;;7.65;3.80;;;4.30;86.40;;;;;;5064909;28;20052;-78
2020/12/12 08:40:23;;;;;;;8.93;3.70;;;4.30;87.30;;;;;;5072723;28;20071;-82
2020/12/12 08:42:59;;;;;;;9.98;4.32;;;4.30;86.80;;;;;;5096937;28;20052;-78
2020/12/12 08:45:28;;;;;;;7.80;3.40;;;4.30;86.60;;;;;;5074284;28;20060;-82
2020/12/12 08:48:03;;;;;;;8.13;3.85;;;4.30;86.80;;;;;;5061736;28;20059;-80
2020/12/12 08:50:47;;;;;;;7.57;3.70;;;4.40;86.90;;;;;;5096860;28;20075;-80
2020/12/12 08:53:32;;;;;;;10.82;4.68;;;4.50;86.40;;;;;;5073232;28;20044;-80
2020/12/12 08:56:04;;;;;;;18.15;6.55;;;4.50;86.60;;;;;;5038340;28;20119;-77
2020/12/12 08:58:36;;;;;;;9.88;3.85;;;4.60;86.70;;;;;;5078969;28;20059;-80
2020/12/12 09:01:34;;;;;;;13.23;4.63;;;4.60;86.50;;;;;;5066493;28;20098;-80
2020/12/12 09:04:20;;;;;;;8.07;3.65;;;4.50;86.30;;;;;;5044157;28;20044;-81
2020/12/12 09:06:53;;;;;;;9.88;4.05;;;4.50;86.00;;;;;;5061369;28;20075;-80
2020/12/12 09:09:23;;;;;;;9.38;4.75;;;4.50;86.30;;;;;;5059927;28;20297;-79
2020/12/12 09:11:57;;;;;;;9.20;4.77;;;4.50;86.50;;;;;;5043881;28;20045;-79
2020/12/12 09:14:24;;;;;;;9.40;3.50;;;4.40;86.30;;;;;;5057184;28;20059;-81
2020/12/12 09:16:54;;;;;;;12.30;5.60;;;4.40;86.30;;;;;;5028091;28;20060;-78
2020/12/12 09:19:21;;;;;;;9.75;4.65;;;4.40;86.70;;;;;;5036964;28;20065;-78
2020/12/12 09:21:49;;;;;;;10.73;3.95;;;4.50;86.40;;;;;;5044045;28;20072;-81
2020/12/12 09:24:18;;;;;;;9.52;4.15;;;4.40;86.40;;;;;;5024894;28;20091;-82
2020/12/12 09:26:47;;;;;;;9.13;4.25;;;4.60;86.40;;;;;;5043525;28;20124;-78
2020/12/12 09:29:14;;;;;;;9.93;4.72;;;4.60;86.10;;;;;;5057404;28;20047;-79
2020/12/12 09:31:42;;;;;;;8.25;4.35;;;4.60;86.60;;;;;;5037454;28;20096;-79
2020/12/12 09:34:09;;;;;;;14.93;5.35;;;4.60;86.40;;;;;;5059019;28;20385;-79
2020/12/12 09:36:38;;;;;;;9.43;5.20;;;4.60;86.20;;;;;;5042153;28;20057;-80
2020/12/12 09:39:05;;;;;;;10.35;5.13;;;4.70;86.50;;;;;;5043767;28;20049;-82
2020/12/12 09:41:32;;;;;;;11.63;5.10;;;4.80;86.10;;;;;;5056744;28;20068;-79
2020/12/12 09:44:00;;;;;;;11.27;4.28;;;4.90;85.90;;;;;;5065358;28;20044;-78
2020/12/12 09:46:28;;;;;;;11.60;4.78;;;5.00;85.60;;;;;;5039249;28;20384;-80
2020/12/12 09:48:56;;;;;;;8.80;4.75;;;5.10;84.70;;;;;;5039944;28;20056;-79
2020/12/12 09:51:23;;;;;;;11.30;5.20;;;5.10;85.70;;;;;;5052691;28;20095;-79
2020/12/12 09:53:52;;;;;;;11.68;5.10;;;5.00;85.20;;;;;;5061763;28;20049;-78
2020/12/12 09:56:19;;;;;;;14.27;5.82;;;5.10;85.10;;;;;;5044599;28;20065;-79
2020/12/12 09:58:46;;;;;;;10.48;5.13;;;5.10;85.00;;;;;;5027636;28;20056;-81
2020/12/12 10:01:15;;;;;;;13.52;5.25;;;5.10;84.90;;;;;;5056348;28;20057;-80
2020/12/12 10:03:43;;;;;;;11.90;5.53;;;5.00;84.50;;;;;;5076075;28;20387;-80
2020/12/12 10:06:11;;;;;;;10.75;5.88;;;5.00;84.80;;;;;;5077902;28;20284;-80
2020/12/12 10:08:39;;;;;;;11.27;4.78;;;5.00;84.90;;;;;;5078100;28;20056;-81
2020/12/12 10:11:07;;;;;;;12.32;5.28;;;5.00;85.30;;;;;;5078395;28;20243;-79
2020/12/12 10:13:34;;;;;;;10.48;5.13;;;5.00;85.20;;;;;;5078707;28;20059;-79
2020/12/12 10:16:02;;;;;;;12.70;5.15;;;5.20;85.30;;;;;;5081155;28;20049;-81
2020/12/12 10:18:31;;;;;;;10.02;5.30;;;5.20;84.90;;;;;;5060996;28;20344;-79
2020/12/12 10:20:58;;;;;;;15.32;7.03;;;5.20;85.10;;;;;;5083390;28;20115;-78
2020/12/12 10:23:29;;;;;;;12.25;5.70;;;5.20;84.60;;;;;;5075714;28;20090;-78
2020/12/12 10:25:55;;;;;;;;;;;5.20;84.40;;;;;;5084971;28;20048;-78
2020/12/12 10:28:22;;;;;;;16.33;6.15;;;5.10;84.50;;;;;;5094016;28;19940;-79
2020/12/12 10:30:49;;;;;;;9.45;3.80;;;5.10;84.90;;;;;;5079783;28;20052;-79
2020/12/12 10:33:16;;;;;;;16.65;6.20;;;5.20;85.30;;;;;;5080087;28;20048;-81
2020/12/12 10:35:44;;;;;;;12.82;5.22;;;5.40;84.60;;;;;;5078853;28;20098;-80
2020/12/12 10:38:12;;;;;;;10.57;5.72;;;5.40;83.80;;;;;;5078588;28;20082;-80
2020/12/12 10:40:41;;;;;;;11.43;4.68;;;5.30;84.70;;;;;;5081154;28;20057;-79
2020/12/12 10:43:33;;;;;;;12.77;6.45;;;5.30;84.20;;;;;;5079332;28;20052;-79
2020/12/12 10:46:02;;;;;;;12.43;5.95;;;5.40;84.40;;;;;;5073743;28;20115;-79
2020/12/12 10:48:29;;;;;;;14.73;5.50;;;5.20;84.60;;;;;;5058915;28;20053;-79
2020/12/12 10:51:00;;;;;;;10.20;4.95;;;5.30;84.10;;;;;;5055543;28;20067;-80
2020/12/12 10:53:30;;;;;;;10.77;5.10;;;5.30;84.60;;;;;;5075849;28;20047;-78
2020/12/12 10:56:00;;;;;;;17.20;6.10;;;5.60;84.60;;;;;;5073612;28;20056;-80
2020/12/12 10:58:38;;;;;;;14.38;5.55;;;5.40;83.60;;;;;;5058820;28;20063;-79
2020/12/12 11:01:08;;;;;;;15.50;6.95;;;5.60;84.30;;;;;;5077869;28;20049;-78
2020/12/12 11:03:35;;;;;;;;;;;5.50;83.60;;;;;;5078236;28;20052;-79
2020/12/12 11:06:04;;;;;;;12.10;4.47;;;5.50;84.20;;;;;;5082320;28;19923;-80
2020/12/12 11:08:37;;;;;;;12.05;4.80;;;5.50;84.10;;;;;;5077556;28;20056;-78
2020/12/12 11:11:04;;;;;;;14.52;5.78;;;5.40;84.10;;;;;;5073147;28;20056;-79
2020/12/12 11:13:42;;;;;;;11.88;4.57;;;5.40;84.30;;;;;;5076261;28;20072;-81
2020/12/12 11:16:10;;;;;;;11.68;5.45;;;5.40;84.10;;;;;;5077605;28;20059;-81
2020/12/12 11:18:38;;;;;;;11.20;5.97;;;5.30;84.70;;;;;;5076353;28;20041;-80
2020/12/12 11:21:06;;;;;;;13.00;5.75;;;5.30;84.90;;;;;;5078705;28;20048;-79
2020/12/12 11:23:33;;;;;;;13.52;5.97;;;5.20;85.10;;;;;;5073305;28;20045;-80
2020/12/12 11:26:00;;;;;;;15.38;6.18;;;5.40;84.50;;;;;;5078141;28;20052;-79
2020/12/12 11:28:29;;;;;;;14.02;6.47;;;5.50;84.50;;;;;;5071368;28;20053;-79
2020/12/12 11:30:56;;;;;;;12.93;5.20;;;5.40;84.30;;;;;;5078312;28;20060;-79
2020/12/12 11:33:23;;;;;;;13.93;7.10;;;5.50;84.40;;;;;;5078975;28;20098;-80
2020/12/12 11:35:56;;;;;;;14.02;6.25;;;5.40;84.60;;;;;;5077604;28;20044;-78
2020/12/12 11:38:34;;;;;;;12.10;5.57;;;5.40;85.00;;;;;;5111517;28;20255;-81
2020/12/12 11:41:09;;;;;;;14.32;6.35;;;5.40;84.70;;;;;;5063658;28;20382;-80
2020/12/12 11:46:29;;;;;;;11.70;4.75;;;5.30;84.60;;;;;;5068487;28;20220;-79
2020/12/12 11:48:58;;;;;;;15.30;6.10;;;5.20;84.80;;;;;;5082765;28;20236;-80
2020/12/12 11:51:27;;;;;;;22.27;7.85;;;5.20;85.70;;;;;;5062088;28;20059;-80
2020/12/12 11:53:55;;;;;;;12.13;5.68;;;5.30;85.40;;;;;;5077311;28;20332;-79
2020/12/12 11:56:24;;;;;;;14.88;6.50;;;5.30;84.90;;;;;;5081172;28;20054;-79
2020/12/12 11:58:52;;;;;;;12.35;6.38;;;5.30;85.10;;;;;;5067750;28;20052;-80
2020/12/12 12:01:20;;;;;;;11.60;5.90;;;5.30;85.20;;;;;;5084428;28;20052;-79
2020/12/12 12:03:48;;;;;;;16.25;7.30;;;5.20;85.20;;;;;;5077599;28;20052;-78
2020/12/12 12:06:15;;;;;;;14.13;6.25;;;5.30;85.20;;;;;;5084512;28;20056;-79
2020/12/12 12:08:51;;;;;;;16.10;6.68;;;5.30;85.10;;;;;;5084612;28;20334;-78
2020/12/12 12:11:31;;;;;;;15.45;6.80;;;5.40;85.00;;;;;;5072968;28;20078;-81
2020/12/12 12:14:00;;;;;;;15.32;5.82;;;5.40;85.50;;;;;;5096026;28;20120;-79
2020/12/12 12:16:28;;;;;;;14.80;7.68;;;5.30;85.50;;;;;;5066178;28;20079;-80
2020/12/12 12:18:55;;;;;;;15.30;6.88;;;5.40;85.50;;;;;;5084575;28;20120;-79
2020/12/12 12:21:28;;;;;;;14.68;6.20;;;5.60;85.40;;;;;;5082058;28;20069;-80
2020/12/12 12:23:55;;;;;;;17.58;7.38;;;5.60;84.90;;;;;;5071197;28;20312;-80
2020/12/12 12:26:23;;;;;;;17.75;7.03;;;5.60;84.80;;;;;;5081081;28;20044;-80
2020/12/12 12:28:51;;;;;;;17.73;6.85;;;5.50;84.80;;;;;;5080933;28;20056;-79
2020/12/12 12:31:23;;;;;;;13.27;6.10;;;5.60;85.00;;;;;;5080643;28;20284;-80
2020/12/12 12:33:50;;;;;;;16.73;6.53;;;5.70;84.30;;;;;;5067321;28;20048;-79
2020/12/12 12:36:17;;;;;;;16.77;8.20;;;5.70;84.70;;;;;;5083440;28;20048;-81
2020/12/12 12:38:45;;;;;;;13.82;6.35;;;5.80;84.70;;;;;;5083030;28;20050;-79
2020/12/12 12:41:12;;;;;;;13.93;6.88;;;5.90;84.30;;;;;;5061562;28;20044;-78
2020/12/12 12:43:40;;;;;;;16.23;5.85;;;5.90;83.80;;;;;;5060219;28;20057;-78
2020/12/12 12:46:08;;;;;;;16.45;6.97;;;5.90;84.00;;;;;;5076917;28;20044;-79
2020/12/12 12:48:36;;;;;;;19.30;6.93;;;5.80;83.40;;;;;;5065727;28;20060;-80
2020/12/12 12:51:07;;;;;;;15.32;6.72;;;5.70;84.20;;;;;;5081602;28;20055;-79
2020/12/12 12:53:34;;;;;;;15.85;6.85;;;5.60;84.30;;;;;;5065421;28;20125;-79
2020/12/12 12:56:01;;;;;;;17.38;7.70;;;5.40;85.00;;;;;;5080593;28;20040;-80
2020/12/12 12:58:33;;;;;;;16.38;7.05;;;5.40;85.10;;;;;;5116483;28;20070;-80
2020/12/12 13:01:01;;;;;;;17.45;7.65;;;5.30;85.20;;;;;;5084818;28;20048;-79
2020/12/12 13:03:29;;;;;;;15.05;6.85;;;5.30;85.70;;;;;;5114544;27;20059;-79
2020/12/12 13:05:56;;;;;;;13.73;6.25;;;5.30;85.80;;;;;;5063821;28;20208;-79